Time;durP1;ratioP1;P1;durP2;ratioP2;P2;SDS_P1;SDS_P2;PMS_P1;PMS_P2;Temp;Humidity;BMP_temperature;BMP_pressure;BME280_temperature;BME280_humidity;BME280_pressure;Samples;Min_cycle;Max_cycle;Signal;HPM_P1;HPM_P2
2023/12/17 00:00:10;;;;;;;20.20;12.98;;;;;;;;;;6082732;29;20361;-80
2023/12/17 00:03:12;;;;;;;23.00;13.75;;;;;;;;;;6079045;29;20371;-79
2023/12/17 00:06:13;;;;;;;21.42;13.00;;;;;;;;;;6081670;29;20059;-80
2023/12/17 00:09:15;;;;;;;26.55;12.38;;;;;;;;;;6082247;29;20048;-81
2023/12/17 00:12:18;;;;;;;21.38;12.85;;;;;;;;;;6087539;29;20053;-80
2023/12/17 00:15:20;;;;;;;24.05;13.63;;;;;;;;;;6087095;29;20351;-79
2023/12/17 00:18:22;;;;;;;20.17;13.43;;;;;;;;;;6082713;29;20082;-80
2023/12/17 00:21:23;;;;;;;24.95;13.48;;;;;;;;;;6087050;29;20359;-79
2023/12/17 00:24:25;;;;;;;26.40;13.55;;;;;;;;;;6082421;29;20053;-80
2023/12/17 00:27:28;;;;;;;24.50;14.82;;;;;;;;;;6080614;29;20053;-80
2023/12/17 00:30:30;;;;;;;26.00;13.63;;;;;;;;;;6084031;29;20344;-80
2023/12/17 00:33:31;;;;;;;24.73;14.15;;;;;;;;;;6084517;29;20075;-81
2023/12/17 00:36:33;;;;;;;23.10;13.02;;;;;;;;;;6086180;29;20240;-80
2023/12/17 00:39:35;;;;;;;26.55;13.70;;;;;;;;;;6082993;29;20052;-79
2023/12/17 00:42:38;;;;;;;22.50;14.10;;;;;;;;;;6081053;29;20272;-79
2023/12/17 00:45:39;;;;;;;20.95;13.27;;;;;;;;;;6088676;29;20068;-80
2023/12/17 00:48:41;;;;;;;25.10;14.25;;;;;;;;;;6083192;29;20352;-80
2023/12/17 00:51:43;;;;;;;24.30;13.80;;;;;;;;;;6085102;29;20067;-80
2023/12/17 00:54:44;;;;;;;25.08;14.13;;;;;;;;;;6080680;29;20469;-80
2023/12/17 00:57:47;;;;;;;28.35;15.10;;;;;;;;;;6082714;29;20364;-87
2023/12/17 01:00:49;;;;;;;26.65;14.10;;;;;;;;;;6087132;29;20283;-85
2023/12/17 01:03:51;;;;;;;24.95;14.07;;;;;;;;;;6089843;29;20052;-87
2023/12/17 01:06:53;;;;;;;24.65;13.85;;;;;;;;;;6084066;29;20352;-85
2023/12/17 01:09:54;;;;;;;21.90;13.35;;;;;;;;;;6085067;29;20205;-86
2023/12/17 01:12:58;;;;;;;21.00;12.77;;;;;;;;;;6085496;29;20056;-86
2023/12/17 01:15:59;;;;;;;19.02;12.32;;;;;;;;;;6086829;29;20079;-86
2023/12/17 01:19:01;;;;;;;21.90;13.07;;;;;;;;;;6081239;29;20184;-88
2023/12/17 01:22:03;;;;;;;21.75;13.07;;;;;;;;;;6090095;29;20402;-86
2023/12/17 01:25:07;;;;;;;23.38;13.70;;;;;;;;;;6084457;29;20073;-87
2023/12/17 01:28:10;;;;;;;24.33;13.07;;;;;;;;;;6081731;29;20067;-86
2023/12/17 01:31:12;;;;;;;21.80;13.32;;;;;;;;;;6085202;29;20087;-87
2023/12/17 01:34:13;;;;;;;22.00;12.95;;;;;;;;;;6084475;29;20472;-86
2023/12/17 01:37:15;;;;;;;28.42;14.88;;;;;;;;;;6085486;29;20063;-86
2023/12/17 01:40:17;;;;;;;28.15;16.73;;;;;;;;;;6083395;29;20062;-86
2023/12/17 01:43:20;;;;;;;27.15;16.90;;;;;;;;;;6087709;29;20059;-87
2023/12/17 01:46:22;;;;;;;22.40;14.90;;;;;;;;;;6080444;29;20071;-87
2023/12/17 01:49:24;;;;;;;26.33;14.80;;;;;;;;;;6083706;29;20064;-87
2023/12/17 01:52:26;;;;;;;31.20;15.48;;;;;;;;;;6082720;29;20057;-86
2023/12/17 01:55:28;;;;;;;23.15;16.00;;;;;;;;;;6081986;29;20067;-87
2023/12/17 01:58:31;;;;;;;29.10;16.45;;;;;;;;;;6083200;29;20382;-87
2023/12/17 02:01:33;;;;;;;29.05;16.77;;;;;;;;;;6087650;29;20056;-88
2023/12/17 02:04:35;;;;;;;24.45;15.50;;;;;;;;;;6081413;29;20065;-88
2023/12/17 02:07:36;;;;;;;29.77;15.15;;;;;;;;;;6080329;29;20072;-80
2023/12/17 02:10:38;;;;;;;27.05;15.85;;;;;;;;;;6086100;29;20061;-80
2023/12/17 02:13:41;;;;;;;24.77;14.98;;;;;;;;;;6080425;29;20061;-80
2023/12/17 02:16:43;;;;;;;23.25;14.55;;;;;;;;;;6080984;29;20052;-80
2023/12/17 02:19:45;;;;;;;27.20;14.82;;;;;;;;;;6086446;29;20060;-80
2023/12/17 02:22:49;;;;;;;24.58;14.23;;;;;;;;;;6081571;29;20060;-80
2023/12/17 02:25:52;;;;;;;20.50;13.93;;;;;;;;;;6077615;29;20108;-80
2023/12/17 02:28:54;;;;;;;24.67;13.75;;;;;;;;;;6078641;29;20053;-80
2023/12/17 02:31:55;;;;;;;22.63;13.82;;;;;;;;;;6082123;29;20252;-80
2023/12/17 02:34:57;;;;;;;22.88;13.93;;;;;;;;;;6076783;29;20057;-80
2023/12/17 02:37:59;;;;;;;22.10;13.82;;;;;;;;;;6077270;29;20045;-81
2023/12/17 02:41:02;;;;;;;18.10;12.68;;;;;;;;;;6084147;29;20063;-80
2023/12/17 02:44:04;;;;;;;22.23;13.10;;;;;;;;;;6085824;29;20072;-80
2023/12/17 02:47:05;;;;;;;17.05;12.50;;;;;;;;;;6084124;29;20056;-80
2023/12/17 02:50:08;;;;;;;16.65;12.25;;;;;;;;;;6082589;29;20056;-80
2023/12/17 02:53:09;;;;;;;19.55;12.43;;;;;;;;;;6079034;29;20060;-79
2023/12/17 02:56:12;;;;;;;19.65;12.75;;;;;;;;;;6083048;29;20072;-80
2023/12/17 02:59:14;;;;;;;21.10;13.55;;;;;;;;;;6082777;29;20049;-80
2023/12/17 03:02:16;;;;;;;21.60;14.07;;;;;;;;;;6080823;29;20239;-78
2023/12/17 03:05:18;;;;;;;23.42;14.18;;;;;;;;;;6082279;29;20057;-79
2023/12/17 03:08:19;;;;;;;23.55;14.05;;;;;;;;;;6077338;29;20064;-80
2023/12/17 03:11:23;;;;;;;22.15;14.38;;;;;;;;;;6080217;29;20086;-80
2023/12/17 03:14:24;;;;;;;23.58;13.65;;;;;;;;;;6082868;29;20091;-79
2023/12/17 03:17:26;;;;;;;22.30;14.07;;;;;;;;;;6082610;29;20057;-86
2023/12/17 03:20:28;;;;;;;20.70;12.95;;;;;;;;;;6076928;29;20136;-86
2023/12/17 03:23:29;;;;;;;24.95;13.63;;;;;;;;;;6079243;29;20067;-86
2023/12/17 03:26:33;;;;;;;22.02;13.10;;;;;;;;;;6078569;29;20060;-89
2023/12/17 03:29:34;;;;;;;19.48;12.77;;;;;;;;;;6080720;29;20056;-88
2023/12/17 03:32:36;;;;;;;21.25;13.27;;;;;;;;;;6081755;29;20304;-87
2023/12/17 03:35:38;;;;;;;21.10;13.98;;;;;;;;;;6082611;29;20060;-86
2023/12/17 03:38:40;;;;;;;25.35;13.57;;;;;;;;;;6087060;29;20048;-87
2023/12/17 03:41:43;;;;;;;20.20;13.50;;;;;;;;;;6086747;29;20308;-87
2023/12/17 03:44:46;;;;;;;22.30;14.00;;;;;;;;;;6087315;29;20074;-87
2023/12/17 03:47:48;;;;;;;27.45;13.10;;;;;;;;;;6084162;29;20047;-87
2023/12/17 03:50:51;;;;;;;21.27;12.90;;;;;;;;;;6090241;29;20091;-87
2023/12/17 03:53:52;;;;;;;21.55;13.23;;;;;;;;;;6087219;29;20053;-85
2023/12/17 03:56:55;;;;;;;24.33;13.90;;;;;;;;;;6092422;29;20131;-85
2023/12/17 03:59:57;;;;;;;18.83;13.13;;;;;;;;;;6089841;29;20065;-88
2023/12/17 04:02:59;;;;;;;19.95;12.90;;;;;;;;;;6087921;29;20070;-87
2023/12/17 04:06:02;;;;;;;24.05;13.57;;;;;;;;;;6087738;29;20060;-85
2023/12/17 04:09:04;;;;;;;18.60;12.43;;;;;;;;;;6090315;29;20064;-87
2023/12/17 04:12:07;;;;;;;27.23;13.63;;;;;;;;;;6081985;29;20444;-86
2023/12/17 04:15:10;;;;;;;20.08;13.23;;;;;;;;;;6084972;29;20367;-87
2023/12/17 04:18:12;;;;;;;21.83;12.05;;;;;;;;;;6088094;29;20060;-87
2023/12/17 04:21:13;;;;;;;22.00;12.68;;;;;;;;;;6085717;29;20065;-86
2023/12/17 04:24:15;;;;;;;20.67;13.05;;;;;;;;;;6086148;29;20252;-84
2023/12/17 04:27:18;;;;;;;17.30;11.85;;;;;;;;;;6085120;29;20053;-79
2023/12/17 04:30:20;;;;;;;20.27;12.63;;;;;;;;;;6085868;29;20078;-78
2023/12/17 04:33:22;;;;;;;19.00;12.05;;;;;;;;;;6089567;29;20059;-79
2023/12/17 04:36:23;;;;;;;22.45;12.85;;;;;;;;;;6079546;29;20055;-79
2023/12/17 04:39:25;;;;;;;21.30;13.23;;;;;;;;;;6085398;29;20251;-79
2023/12/17 04:42:28;;;;;;;22.30;13.07;;;;;;;;;;6088405;29;20296;-79
2023/12/17 04:45:30;;;;;;;22.83;12.97;;;;;;;;;;6087880;29;20063;-79
2023/12/17 04:48:32;;;;;;;16.83;11.70;;;;;;;;;;6079212;29;20071;-77
2023/12/17 04:51:33;;;;;;;19.30;12.38;;;;;;;;;;6087147;29;20046;-78
2023/12/17 04:54:35;;;;;;;19.80;12.52;;;;;;;;;;6085717;29;20060;-78
2023/12/17 04:57:38;;;;;;;19.42;12.50;;;;;;;;;;6084633;29;20053;-78
2023/12/17 05:00:40;;;;;;;18.73;11.98;;;;;;;;;;6081847;29;20064;-79
2023/12/17 05:03:42;;;;;;;22.23;12.52;;;;;;;;;;6079825;29;20056;-78
2023/12/17 05:06:44;;;;;;;24.85;12.90;;;;;;;;;;6079339;29;20048;-78
2023/12/17 05:09:45;;;;;;;20.23;12.45;;;;;;;;;;6082418;29;20067;-79
2023/12/17 05:12:48;;;;;;;20.23;12.20;;;;;;;;;;6084661;29;20064;-78
2023/12/17 05:15:50;;;;;;;19.88;12.40;;;;;;;;;;6086928;29;20537;-79
2023/12/17 05:18:52;;;;;;;21.80;12.75;;;;;;;;;;6082803;29;20064;-78
2023/12/17 05:21:54;;;;;;;23.33;12.32;;;;;;;;;;6082686;29;20065;-77
2023/12/17 05:24:55;;;;;;;20.88;12.55;;;;;;;;;;6081768;29;20052;-80
2023/12/17 05:27:58;;;;;;;20.27;11.43;;;;;;;;;;6079683;29;20044;-77
2023/12/17 05:31:00;;;;;;;20.80;12.52;;;;;;;;;;6090602;29;20060;-79
2023/12/17 05:34:02;;;;;;;23.80;13.30;;;;;;;;;;6085336;29;20056;-77
2023/12/17 05:37:04;;;;;;;25.80;13.45;;;;;;;;;;6085956;29;20060;-89
2023/12/17 05:40:08;;;;;;;26.45;13.07;;;;;;;;;;6085469;29;20253;-87
2023/12/17 05:43:11;;;;;;;20.90;10.82;;;;;;;;;;6086554;29;20105;-89
2023/12/17 05:46:12;;;;;;;27.15;13.30;;;;;;;;;;6084021;29;20313;-86
2023/12/17 05:49:14;;;;;;;25.23;12.82;;;;;;;;;;6085960;29;20110;-88
2023/12/17 05:52:16;;;;;;;26.65;14.25;;;;;;;;;;6082756;29;20055;-86
2023/12/17 05:55:19;;;;;;;30.92;14.57;;;;;;;;;;6080690;29;20063;-89
2023/12/17 05:58:23;;;;;;;31.63;14.18;;;;;;;;;;6086071;29;20127;-87
2023/12/17 06:01:24;;;;;;;27.40;14.40;;;;;;;;;;6083129;29;20348;-86
2023/12/17 06:04:26;;;;;;;28.00;14.00;;;;;;;;;;6086325;29;20048;-87
2023/12/17 06:07:28;;;;;;;21.63;12.77;;;;;;;;;;6085685;29;20060;-87
2023/12/17 06:10:30;;;;;;;27.25;13.40;;;;;;;;;;6084143;29;20044;-88
2023/12/17 06:13:34;;;;;;;30.02;14.60;;;;;;;;;;6079919;29;20085;-88
2023/12/17 06:16:41;;;;;;;28.25;13.32;;;;;;;;;;6081605;29;20052;-88
2023/12/17 06:19:44;;;;;;;27.23;14.90;;;;;;;;;;6082447;29;20063;-87
2023/12/17 06:22:45;;;;;;;25.83;14.10;;;;;;;;;;6082016;29;20072;-87
2023/12/17 06:25:47;;;;;;;25.35;14.13;;;;;;;;;;6085789;29;20248;-85
2023/12/17 06:28:50;;;;;;;25.80;13.07;;;;;;;;;;6085252;29;20048;-87
2023/12/17 06:31:52;;;;;;;23.75;12.57;;;;;;;;;;6080872;29;20064;-87
2023/12/17 06:34:53;;;;;;;23.20;12.90;;;;;;;;;;6083592;29;20052;-86
2023/12/17 06:37:55;;;;;;;23.88;13.88;;;;;;;;;;6083943;29;20139;-87
2023/12/17 06:40:57;;;;;;;28.75;13.43;;;;;;;;;;6079961;29;20061;-87
2023/12/17 06:44:00;;;;;;;25.48;13.13;;;;;;;;;;6078400;29;20060;-87
2023/12/17 06:47:02;;;;;;;23.15;12.45;;;;;;;;;;6082174;29;20048;-88
2023/12/17 06:50:04;;;;;;;22.30;12.27;;;;;;;;;;6083198;29;20099;-88
2023/12/17 06:53:06;;;;;;;23.50;13.45;;;;;;;;;;6086347;29;20057;-87
2023/12/17 06:56:08;;;;;;;25.73;13.70;;;;;;;;;;6086666;29;20282;-87
2023/12/17 06:59:11;;;;;;;22.17;12.95;;;;;;;;;;6081861;29;20375;-85
2023/12/17 07:02:13;;;;;;;25.15;13.68;;;;;;;;;;6085814;29;20063;-88
2023/12/17 07:05:15;;;;;;;22.42;13.05;;;;;;;;;;6084626;29;20382;-87
2023/12/17 07:08:17;;;;;;;25.33;13.57;;;;;;;;;;6082345;29;20060;-87
2023/12/17 07:11:19;;;;;;;21.92;13.60;;;;;;;;;;6083175;29;20052;-88
2023/12/17 07:14:22;;;;;;;23.30;13.93;;;;;;;;;;6084106;29;20297;-88
2023/12/17 07:17:24;;;;;;;20.10;12.27;;;;;;;;;;6080904;29;20056;-87
2023/12/17 07:20:25;;;;;;;25.55;14.80;;;;;;;;;;6082814;29;20167;-88
2023/12/17 07:23:27;;;;;;;24.27;13.57;;;;;;;;;;6082108;29;20065;-88
2023/12/17 07:26:29;;;;;;;26.60;13.27;;;;;;;;;;6078776;29;20094;-87
2023/12/17 07:29:32;;;;;;;21.88;12.93;;;;;;;;;;6082954;29;20064;-85
2023/12/17 07:32:34;;;;;;;22.30;12.85;;;;;;;;;;6079512;29;20244;-85
2023/12/17 07:35:36;;;;;;;21.88;12.18;;;;;;;;;;6082942;29;20052;-84
2023/12/17 07:38:37;;;;;;;22.17;12.25;;;;;;;;;;6079763;29;20280;-85
2023/12/17 07:41:39;;;;;;;22.42;12.23;;;;;;;;;;6081400;29;20144;-87
2023/12/17 07:44:42;;;;;;;21.33;12.70;;;;;;;;;;6080892;29;20048;-84
2023/12/17 07:47:45;;;;;;;25.03;13.50;;;;;;;;;;6078150;29;20049;-85
2023/12/17 07:50:46;;;;;;;26.23;14.88;;;;;;;;;;6080190;29;20108;-87
2023/12/17 07:53:48;;;;;;;25.63;13.32;;;;;;;;;;6086097;29;20060;-86
2023/12/17 07:56:50;;;;;;;25.80;14.15;;;;;;;;;;6078352;29;20394;-85
2023/12/17 07:59:53;;;;;;;27.38;13.30;;;;;;;;;;6082782;29;20332;-86
2023/12/17 08:02:55;;;;;;;27.25;13.77;;;;;;;;;;6082459;29;20061;-86
2023/12/17 08:05:57;;;;;;;27.25;12.98;;;;;;;;;;6079339;29;20049;-88
2023/12/17 08:08:59;;;;;;;26.40;12.57;;;;;;;;;;6082929;29;20048;-85
2023/12/17 08:12:00;;;;;;;26.25;13.60;;;;;;;;;;6082511;29;20112;-85
2023/12/17 08:15:05;;;;;;;22.35;12.35;;;;;;;;;;6079997;29;20052;-87
2023/12/17 08:18:07;;;;;;;21.60;12.57;;;;;;;;;;6078852;29;20064;-86
2023/12/17 08:21:09;;;;;;;23.88;12.82;;;;;;;;;;6078068;29;20059;-84
2023/12/17 08:24:10;;;;;;;22.02;12.13;;;;;;;;;;6085431;29;20104;-86
2023/12/17 08:27:13;;;;;;;23.70;12.95;;;;;;;;;;6082566;29;20071;-86
2023/12/17 08:30:17;;;;;;;22.33;13.38;;;;;;;;;;6087382;29;20126;-86
2023/12/17 08:33:19;;;;;;;;;;;;;;;;;;6080232;29;20607;-86
2023/12/17 08:36:22;;;;;;;20.83;12.13;;;;;;;;;;6086985;29;19919;-86
2023/12/17 08:39:25;;;;;;;21.05;11.85;;;;;;;;;;6089366;29;20556;-86
2023/12/17 08:42:27;;;;;;;23.70;12.63;;;;;;;;;;6086821;29;20049;-85
2023/12/17 08:45:30;;;;;;;19.83;13.25;;;;;;;;;;6086363;29;20341;-85
2023/12/17 08:48:31;;;;;;;22.35;12.30;;;;;;;;;;6084969;29;20366;-85
2023/12/17 08:51:33;;;;;;;17.30;12.30;;;;;;;;;;6083978;29;20052;-85
2023/12/17 08:54:35;;;;;;;18.58;12.63;;;;;;;;;;6084948;29;20068;-86
2023/12/17 08:57:36;;;;;;;19.08;12.02;;;;;;;;;;6086614;29;20052;-75
2023/12/17 09:00:39;;;;;;;18.25;11.63;;;;;;;;;;6081283;29;20063;-86
2023/12/17 09:03:41;;;;;;;21.88;12.38;;;;;;;;;;6082795;29;20289;-88
2023/12/17 09:06:44;;;;;;;19.35;12.50;;;;;;;;;;6083557;29;20067;-84
2023/12/17 09:09:46;;;;;;;16.35;11.68;;;;;;;;;;6077034;29;20068;-87
2023/12/17 09:12:47;;;;;;;18.02;11.70;;;;;;;;;;6081206;29;20064;-87
2023/12/17 09:15:51;;;;;;;14.73;11.10;;;;;;;;;;6081016;29;20057;-83
2023/12/17 09:18:52;;;;;;;15.73;11.38;;;;;;;;;;6083201;29;20049;-87
2023/12/17 09:21:54;;;;;;;17.98;11.15;;;;;;;;;;6085651;29;20074;-87
2023/12/17 09:24:56;;;;;;;18.77;11.93;;;;;;;;;;6083350;29;20228;-87
2023/12/17 09:27:58;;;;;;;15.52;11.07;;;;;;;;;;6084723;29;20064;-86
2023/12/17 09:31:01;;;;;;;17.98;11.38;;;;;;;;;;6083082;29;20276;-88
2023/12/17 09:34:03;;;;;;;17.15;11.68;;;;;;;;;;6083546;29;20399;-87
2023/12/17 09:37:05;;;;;;;14.45;10.73;;;;;;;;;;6084136;29;20052;-88
2023/12/17 09:40:09;;;;;;;17.20;11.13;;;;;;;;;;6078663;29;20364;-87
2023/12/17 09:43:10;;;;;;;16.50;11.77;;;;;;;;;;6086239;29;20078;-87
2023/12/17 09:46:14;;;;;;;15.38;11.23;;;;;;;;;;6088045;29;20053;-86
2023/12/17 09:49:15;;;;;;;21.30;10.95;;;;;;;;;;6079749;29;20052;-88
2023/12/17 09:52:20;;;;;;;16.70;11.00;;;;;;;;;;6090361;29;20060;-87
2023/12/17 09:55:21;;;;;;;;;;;;;;;;;;6083156;29;20052;-88
2023/12/17 09:58:25;;;;;;;16.63;11.05;;;;;;;;;;6080009;29;19943;-87
2023/12/17 10:01:28;;;;;;;19.85;11.38;;;;;;;;;;6086590;29;20056;-87
2023/12/17 10:04:30;;;;;;;15.13;10.35;;;;;;;;;;6084014;29;20056;-86
2023/12/17 10:07:32;;;;;;;14.55;10.80;;;;;;;;;;6084053;29;20060;-87
2023/12/17 10:10:35;;;;;;;15.10;10.73;;;;;;;;;;6083718;29;20061;-87
2023/12/17 10:13:37;;;;;;;15.90;10.85;;;;;;;;;;6083945;29;20059;-85
2023/12/17 10:16:40;;;;;;;21.38;10.98;;;;;;;;;;6083488;29;20057;-86
2023/12/17 10:19:42;;;;;;;17.10;10.80;;;;;;;;;;6084948;29;20059;-86
2023/12/17 10:22:56;;;;;;;13.52;9.82;;;;;;;;;;6084043;29;20370;-87
2023/12/17 10:26:03;;;;;;;16.60;10.57;;;;;;;;;;6088246;29;20060;-83
2023/12/17 10:29:05;;;;;;;15.98;9.43;;;;;;;;;;6084395;29;20050;-84
2023/12/17 10:32:09;;;;;;;14.23;10.30;;;;;;;;;;6080989;29;20067;-86
2023/12/17 10:35:10;;;;;;;;;;;;;;;;;;6083997;29;20068;-84
2023/12/17 10:38:13;;;;;;;17.00;10.50;;;;;;;;;;6084978;29;19928;-79
2023/12/17 10:41:15;;;;;;;14.93;9.93;;;;;;;;;;6079689;29;20104;-79
2023/12/17 10:44:18;;;;;;;14.80;9.80;;;;;;;;;;6083308;29;20349;-79
2023/12/17 10:47:23;;;;;;;12.55;9.75;;;;;;;;;;6076493;29;20060;-79
2023/12/17 10:50:26;;;;;;;12.32;8.70;;;;;;;;;;6075575;29;20052;-77
2023/12/17 10:53:28;;;;;;;13.82;8.70;;;;;;;;;;6081780;29;20082;-78
2023/12/17 10:56:34;;;;;;;15.93;9.20;;;;;;;;;;6081617;29;20044;-79
2023/12/17 10:59:37;;;;;;;14.65;9.43;;;;;;;;;;6080417;29;20056;-79
2023/12/17 11:02:40;;;;;;;19.58;11.10;;;;;;;;;;6083884;29;20418;-78
2023/12/17 11:05:55;;;;;;;15.50;9.05;;;;;;;;;;6084033;29;20363;-77
2023/12/17 11:08:57;;;;;;;12.35;9.32;;;;;;;;;;6081561;29;20055;-77
2023/12/17 11:11:58;;;;;;;13.45;9.98;;;;;;;;;;6082674;29;20122;-78
2023/12/17 11:15:00;;;;;;;14.32;10.20;;;;;;;;;;6079704;29;20048;-79
2023/12/17 11:18:03;;;;;;;17.05;9.55;;;;;;;;;;6082900;29;20056;-79
2023/12/17 11:21:05;;;;;;;14.17;9.50;;;;;;;;;;6085629;29;20061;-79
2023/12/17 11:24:08;;;;;;;15.57;10.15;;;;;;;;;;6083272;29;20076;-76
2023/12/17 11:27:11;;;;;;;14.95;10.23;;;;;;;;;;6074919;29;20052;-77
2023/12/17 11:30:34;;;;;;;20.13;10.57;;;;;;;;;;6076057;29;20168;-77
2023/12/17 11:33:38;;;;;;;13.75;10.00;;;;;;;;;;6077868;29;20052;-78
2023/12/17 11:36:40;;;;;;;13.18;9.55;;;;;;;;;;6082186;29;20044;-78
2023/12/17 11:39:42;;;;;;;15.68;9.50;;;;;;;;;;6077532;29;20055;-78
2023/12/17 11:42:55;;;;;;;18.45;10.60;;;;;;;;;;6079488;29;20060;-79
2023/12/17 11:45:57;;;;;;;16.50;11.65;;;;;;;;;;6077865;29;20044;-80
2023/12/17 11:49:02;;;;;;;16.00;10.93;;;;;;;;;;6080608;29;20374;-78
2023/12/17 11:52:11;;;;;;;18.77;11.57;;;;;;;;;;6083357;29;20107;-80
2023/12/17 11:55:13;;;;;;;18.25;11.55;;;;;;;;;;6079926;29;20285;-81
2023/12/17 11:58:19;;;;;;;17.88;11.98;;;;;;;;;;6083919;29;20073;-81
2023/12/17 12:01:21;;;;;;;18.25;12.20;;;;;;;;;;6086284;29;22524;-81
2023/12/17 12:04:24;;;;;;;23.95;13.63;;;;;;;;;;6090528;29;20058;-81
2023/12/17 12:07:26;;;;;;;24.10;14.93;;;;;;;;;;6085534;29;20127;-81
2023/12/17 12:10:29;;;;;;;21.60;14.50;;;;;;;;;;6083521;29;20045;-80
2023/12/17 12:13:31;;;;;;;18.70;14.68;;;;;;;;;;6083364;29;20364;-81
2023/12/17 12:16:41;;;;;;;19.92;14.35;;;;;;;;;;6087404;29;20252;-83
2023/12/17 12:19:49;;;;;;;23.35;15.48;;;;;;;;;;6085110;29;20124;-80
2023/12/17 12:22:54;;;;;;;31.33;15.27;;;;;;;;;;6082684;29;20060;-80
2023/12/17 12:25:58;;;;;;;21.70;15.55;;;;;;;;;;6077224;29;20053;-80
2023/12/17 12:29:01;;;;;;;23.55;16.60;;;;;;;;;;6079332;29;20052;-80
2023/12/17 12:32:05;;;;;;;22.00;16.02;;;;;;;;;;6084034;29;20052;-81
2023/12/17 12:35:20;;;;;;;22.65;16.05;;;;;;;;;;6088609;29;20403;-80
2023/12/17 12:38:23;;;;;;;22.45;15.55;;;;;;;;;;6081779;29;20054;-80
2023/12/17 12:41:25;;;;;;;21.17;15.90;;;;;;;;;;6085766;29;20067;-79
2023/12/17 12:44:26;;;;;;;21.08;15.30;;;;;;;;;;6085965;29;20059;-80
2023/12/17 12:47:28;;;;;;;23.70;15.95;;;;;;;;;;6091790;29;20057;-81
2023/12/17 12:50:31;;;;;;;23.33;16.20;;;;;;;;;;6084651;29;20068;-81
2023/12/17 12:53:33;;;;;;;24.20;15.57;;;;;;;;;;6084713;29;20052;-79
2023/12/17 12:56:35;;;;;;;21.42;15.70;;;;;;;;;;6084362;29;20063;-81
2023/12/17 12:59:38;;;;;;;24.45;16.80;;;;;;;;;;6086984;29;20233;-81
2023/12/17 13:02:40;;;;;;;23.95;16.02;;;;;;;;;;6081315;29;20045;-81
2023/12/17 13:05:43;;;;;;;24.05;16.25;;;;;;;;;;6082888;29;20263;-82
2023/12/17 13:08:45;;;;;;;21.50;15.60;;;;;;;;;;6081483;29;20061;-80
2023/12/17 13:11:49;;;;;;;24.65;16.10;;;;;;;;;;6084421;29;20064;-82
2023/12/17 13:14:56;;;;;;;26.95;16.33;;;;;;;;;;6079992;29;20056;-80
2023/12/17 13:17:58;;;;;;;23.25;15.75;;;;;;;;;;6080160;29;20390;-80
2023/12/17 13:21:01;;;;;;;25.92;16.75;;;;;;;;;;6081934;29;20071;-80
2023/12/17 13:24:03;;;;;;;24.47;16.47;;;;;;;;;;6082525;29;20079;-81
2023/12/17 13:27:05;;;;;;;29.00;16.30;;;;;;;;;;6079458;29;20248;-80
2023/12/17 13:30:09;;;;;;;22.92;15.95;;;;;;;;;;6083794;29;20251;-83
2023/12/17 13:33:11;;;;;;;25.35;16.83;;;;;;;;;;6083131;29;20104;-79
2023/12/17 13:36:14;;;;;;;22.55;15.60;;;;;;;;;;6084021;29;20068;-81
2023/12/17 13:39:16;;;;;;;23.63;14.02;;;;;;;;;;6080745;29;20064;-80
2023/12/17 13:42:18;;;;;;;23.55;15.07;;;;;;;;;;6084345;29;20100;-80
2023/12/17 13:45:20;;;;;;;19.48;13.55;;;;;;;;;;6085738;29;20067;-80
2023/12/17 13:48:21;;;;;;;17.58;12.52;;;;;;;;;;6081547;29;20053;-79
2023/12/17 13:51:26;;;;;;;18.80;13.63;;;;;;;;;;6083316;29;20071;-80
2023/12/17 13:54:28;;;;;;;16.92;12.35;;;;;;;;;;6086408;29;20147;-79
2023/12/17 13:57:29;;;;;;;23.02;14.68;;;;;;;;;;6081975;29;20056;-80
2023/12/17 14:00:32;;;;;;;21.80;13.93;;;;;;;;;;6083417;29;20244;-79
2023/12/17 14:03:34;;;;;;;20.05;13.48;;;;;;;;;;6082492;29;20076;-80
2023/12/17 14:06:37;;;;;;;21.13;13.38;;;;;;;;;;6076313;29;20064;-81
2023/12/17 14:09:39;;;;;;;23.38;14.05;;;;;;;;;;6082410;29;20075;-81
2023/12/17 14:12:41;;;;;;;26.10;15.05;;;;;;;;;;6077721;29;20060;-79
2023/12/17 14:15:42;;;;;;;24.88;16.05;;;;;;;;;;6083646;29;20052;-81
2023/12/17 14:18:44;;;;;;;24.08;14.90;;;;;;;;;;6083363;29;20052;-80
2023/12/17 14:21:47;;;;;;;25.83;15.25;;;;;;;;;;6081184;29;20057;-80
2023/12/17 14:24:50;;;;;;;22.67;14.95;;;;;;;;;;6082207;29;20072;-80
2023/12/17 14:27:52;;;;;;;28.90;15.95;;;;;;;;;;6078914;29;20083;-80
2023/12/17 14:30:53;;;;;;;25.02;15.40;;;;;;;;;;6082500;29;20060;-80
2023/12/17 14:33:55;;;;;;;27.10;15.45;;;;;;;;;;6084786;29;20051;-80
2023/12/17 14:36:58;;;;;;;26.20;16.05;;;;;;;;;;6084385;29;20053;-80
2023/12/17 14:40:00;;;;;;;22.27;15.63;;;;;;;;;;6082263;29;20045;-80
2023/12/17 14:43:02;;;;;;;23.48;14.77;;;;;;;;;;6084001;29;20364;-80
2023/12/17 14:46:04;;;;;;;24.10;15.77;;;;;;;;;;6083267;29;20072;-79
2023/12/17 14:49:05;;;;;;;23.25;14.73;;;;;;;;;;6083296;29;20056;-79
2023/12/17 14:52:08;;;;;;;28.73;16.75;;;;;;;;;;6079888;29;20061;-80
2023/12/17 14:55:10;;;;;;;21.92;15.35;;;;;;;;;;6080662;29;20121;-79
2023/12/17 14:58:13;;;;;;;23.45;16.45;;;;;;;;;;6079165;29;20097;-80
2023/12/17 15:01:15;;;;;;;23.92;16.40;;;;;;;;;;6078935;29;20068;-79
2023/12/17 15:04:17;;;;;;;24.27;16.90;;;;;;;;;;6081516;29;20087;-80
2023/12/17 15:07:20;;;;;;;24.15;16.45;;;;;;;;;;6083901;29;20056;-80
2023/12/17 15:10:22;;;;;;;24.50;15.27;;;;;;;;;;6084114;29;20134;-80
2023/12/17 15:13:24;;;;;;;22.75;15.52;;;;;;;;;;6082890;29;20052;-81
2023/12/17 15:16:28;;;;;;;22.20;17.23;;;;;;;;;;6080320;29;20344;-80
2023/12/17 15:19:30;;;;;;;22.55;16.05;;;;;;;;;;6082046;29;20066;-80
2023/12/17 15:22:33;;;;;;;23.23;15.63;;;;;;;;;;6079680;29;20048;-80
2023/12/17 15:25:35;;;;;;;24.55;16.27;;;;;;;;;;6080354;29;20269;-80
2023/12/17 15:28:37;;;;;;;25.23;16.63;;;;;;;;;;6078284;29;20053;-80
2023/12/17 15:31:38;;;;;;;24.77;16.52;;;;;;;;;;6084196;29;20052;-80
2023/12/17 15:34:40;;;;;;;22.80;16.58;;;;;;;;;;6091138;29;20068;-79
2023/12/17 15:37:46;;;;;;;25.17;15.73;;;;;;;;;;6090214;29;20052;-79
2023/12/17 15:40:48;;;;;;;23.65;16.85;;;;;;;;;;6082635;29;20387;-80
2023/12/17 15:43:50;;;;;;;98.70;47.08;;;;;;;;;;6085120;29;20071;-80
2023/12/17 15:46:52;;;;;;;58.67;30.00;;;;;;;;;;6086039;29;20060;-80
2023/12/17 15:49:53;;;;;;;38.50;21.90;;;;;;;;;;6085776;29;20083;-80
2023/12/17 15:52:56;;;;;;;35.15;20.70;;;;;;;;;;6086860;29;20056;-80
2023/12/17 15:55:58;;;;;;;28.15;18.55;;;;;;;;;;6087323;29;20059;-79
2023/12/17 15:59:00;;;;;;;29.27;19.23;;;;;;;;;;6084400;29;20056;-79
2023/12/17 16:02:02;;;;;;;30.55;18.65;;;;;;;;;;6084621;29;20053;-79
2023/12/17 16:05:05;;;;;;;29.70;20.58;;;;;;;;;;6085645;29;20040;-79
2023/12/17 16:08:08;;;;;;;29.17;19.48;;;;;;;;;;6082237;29;20068;-80
2023/12/17 16:11:10;;;;;;;29.92;20.15;;;;;;;;;;6092874;29;20060;-79
2023/12/17 16:14:12;;;;;;;33.65;20.25;;;;;;;;;;6085449;29;20060;-80
2023/12/17 16:17:13;;;;;;;34.53;21.10;;;;;;;;;;6085481;29;20371;-80
2023/12/17 16:20:15;;;;;;;31.98;21.02;;;;;;;;;;6087411;29;20276;-79
2023/12/17 16:23:18;;;;;;;37.08;21.35;;;;;;;;;;6081731;29;20048;-80
2023/12/17 16:26:20;;;;;;;38.03;22.95;;;;;;;;;;6083872;29;20109;-78
2023/12/17 16:29:23;;;;;;;36.17;22.20;;;;;;;;;;6085299;29;20052;-78
2023/12/17 16:32:24;;;;;;;34.83;22.15;;;;;;;;;;6081911;29;20056;-78
2023/12/17 16:35:26;;;;;;;35.72;23.45;;;;;;;;;;6079827;29;20049;-78
2023/12/17 16:38:29;;;;;;;37.05;23.65;;;;;;;;;;6083673;29;20053;-78
2023/12/17 16:41:31;;;;;;;35.60;23.20;;;;;;;;;;6082599;29;20052;-77
2023/12/17 16:44:32;;;;;;;37.65;24.67;;;;;;;;;;6084706;29;20108;-78
2023/12/17 16:47:34;;;;;;;36.40;23.42;;;;;;;;;;6083718;29;20063;-78
2023/12/17 16:50:36;;;;;;;38.17;23.77;;;;;;;;;;6090408;29;20060;-78
2023/12/17 16:53:39;;;;;;;40.13;24.55;;;;;;;;;;6086194;29;20336;-78
2023/12/17 16:56:41;;;;;;;40.73;24.03;;;;;;;;;;6090419;29;20072;-78
2023/12/17 16:59:44;;;;;;;36.77;24.53;;;;;;;;;;6083388;29;20060;-79
2023/12/17 17:02:47;;;;;;;35.03;22.73;;;;;;;;;;6085750;29;20456;-78
2023/12/17 17:05:49;;;;;;;37.45;24.33;;;;;;;;;;6089882;29;20068;-78
2023/12/17 17:08:52;;;;;;;37.17;23.88;;;;;;;;;;6085924;29;20075;-78
2023/12/17 17:11:53;;;;;;;38.30;23.45;;;;;;;;;;6084880;29;20052;-79
2023/12/17 17:14:56;;;;;;;37.78;23.52;;;;;;;;;;6081795;29;20045;-79
2023/12/17 17:17:57;;;;;;;34.85;23.05;;;;;;;;;;6080435;29;20052;-78
2023/12/17 17:20:59;;;;;;;33.40;21.50;;;;;;;;;;6081173;29;20056;-78
2023/12/17 17:24:03;;;;;;;36.75;23.05;;;;;;;;;;6081823;29;20070;-79
2023/12/17 17:27:05;;;;;;;38.65;24.23;;;;;;;;;;6081585;29;20127;-78
2023/12/17 17:30:08;;;;;;;32.20;22.30;;;;;;;;;;6079882;29;20289;-78
2023/12/17 17:33:10;;;;;;;35.97;22.75;;;;;;;;;;6085247;29;20103;-78
2023/12/17 17:36:12;;;;;;;37.17;23.38;;;;;;;;;;6082837;29;20053;-77
2023/12/17 17:39:15;;;;;;;36.53;23.15;;;;;;;;;;6083683;29;20060;-78
2023/12/17 17:42:16;;;;;;;42.47;24.92;;;;;;;;;;6086184;29;20351;-78